LETO/TOJ METAR and TAF weather

Enter ICAO airport designator
Station Type Date Time Source
LETO METAR 2019/12/14 19:00 UTC NOAA

LETO 141900Z 20007KT CAVOK 08/07 Q1019 NOSIG


Station Type Date Time Source
LETO Decoded METAR 2019/12/14 19:00 UTC NOAA

Madrid / Torrejon, Spain (LETO) 40-29N 003-27W 611M
Dec 14, 2019 - 02:00 PM EST / 2019.12.14 1900 UTC
Wind: from the SSW (200 degrees) at 8 MPH (7 KT):0
Visibility: greater than 7 mile(s):0
Temperature: 46 F (8 C)
Dew Point: 44 F (7 C)
Relative Humidity: 93%
Pressure (altimeter): 30.09 in. Hg (1019 hPa)
ob: LETO 141900Z 20007KT CAVOK 08/07 Q1019 NOSIG
cycle: 19

Station Type Date Time Source
LETO TAF 2019/12/14 18:27 UTC NOAA

TAF TAF LETO 141700Z 1418/1518 21010KT 9999 SCT030 BKN045 TX12/1515Z TN08/1506Z
TEMPO 1502/1507 20005KT PROB40
TEMPO 1422/1510 4000 BCFG BKN007 PROB30
TEMPO 1500/1508 0500 FG BKN001

Example: see airport list